createdAt,value
2018-08-17T00:39:08.836Z,57.8
2018-08-17T00:44:09.180Z,57.7
2018-08-17T00:44:59.273Z,57.7
2018-08-17T00:45:49.323Z,57.7
2018-08-17T00:46:39.387Z,57.7
2018-08-17T00:47:29.450Z,57.7
2018-08-17T00:48:18.976Z,57.7
2018-08-17T00:49:09.144Z,57.7
2018-08-17T00:49:59.076Z,57.6
2018-08-17T00:50:49.433Z,57.6
2018-08-17T00:51:39.794Z,57.6
2018-08-17T00:52:29.867Z,57.6
2018-08-17T00:53:20.020Z,57.6
2018-08-17T00:54:09.991Z,57.6
2018-08-17T00:55:00.057Z,57.6
2018-08-17T00:55:49.850Z,57.6
2018-08-17T00:56:40.169Z,57.6
2018-08-17T00:57:30.550Z,57.6
2018-08-17T00:58:20.589Z,57.6
2018-08-17T00:59:10.408Z,57.6
2018-08-17T00:59:59.860Z,57.6
2018-08-17T01:00:50.468Z,57.6
2018-08-17T01:01:40.540Z,57.5
2018-08-17T01:02:30.043Z,57.5
2018-08-17T01:03:20.689Z,57.5
2018-08-17T01:04:11.039Z,57.5
2018-08-17T01:05:01.054Z,57.5
2018-08-17T01:05:51.104Z,57.5
2018-08-17T01:06:40.668Z,57.5
2018-08-17T01:07:30.984Z,57.5
2018-08-17T01:08:21.324Z,57.4
2018-08-17T01:09:11.392Z,57.4
2018-08-17T01:10:01.182Z,57.4
2018-08-17T01:10:51.529Z,57.4
2018-08-17T01:11:41.127Z,57.4
2018-08-17T01:12:30.815Z,57.4
2018-08-17T01:13:21.733Z,57.4
2018-08-17T01:14:11.778Z,57.4
2018-08-17T01:15:01.844Z,57.4
2018-08-17T01:15:51.357Z,57.4
2018-08-17T01:16:41.685Z,57.4
2018-08-17T01:17:32.035Z,57.4
2018-08-17T01:18:21.315Z,57.4
2018-08-17T01:19:12.153Z,57.4
2018-08-17T01:20:02.225Z,57.4
2018-08-17T01:20:52.304Z,57.3
2018-08-17T01:21:42.078Z,57.3
2018-08-17T01:22:32.461Z,57.3
2018-08-17T01:23:22.486Z,57.3
2018-08-17T01:24:12.290Z,57.3
2018-08-17T01:25:02.677Z,57.3
2018-08-17T01:25:52.705Z,57.3
2018-08-17T01:26:42.252Z,57.3
2018-08-17T01:27:32.535Z,57.3
2018-08-17T01:28:22.619Z,57.3
2018-08-17T01:29:12.720Z,57.3
2018-08-17T01:30:03.024Z,57.3
2018-08-17T01:30:52.877Z,57.3
2018-08-17T01:31:43.144Z,57.2
2018-08-17T01:32:32.405Z,57.2
2018-08-17T01:33:23.015Z,57.2
2018-08-17T01:34:12.556Z,57.2
2018-08-17T01:35:03.145Z,57.2
2018-08-17T01:35:52.646Z,57.1
2018-08-17T01:36:43.262Z,57.1
2018-08-17T01:37:33.620Z,57.1
2018-08-17T01:38:23.664Z,57.1
2018-08-17T01:39:13.452Z,57.1
2018-08-17T01:40:03.775Z,57.1
2018-08-17T01:40:53.601Z,57.1
2018-08-17T01:41:43.900Z,57.1
2018-08-17T01:42:33.714Z,57.1
2018-08-17T01:43:24.074Z,57.1
2018-08-17T01:44:13.854Z,57.1
2018-08-17T01:45:03.481Z,57.1
2018-08-17T01:45:53.958Z,57.1
2018-08-17T01:46:43.782Z,57.1
2018-08-17T01:47:33.816Z,57.1
2018-08-17T01:48:23.891Z,57.1
2018-08-17T01:49:14.499Z,57.1
2018-08-17T01:50:04.292Z,57.1
2018-08-17T01:50:54.662Z,57
2018-08-17T01:51:44.470Z,57
2018-08-17T01:52:34.495Z,57
2018-08-17T01:53:24.310Z,57
2018-08-17T01:54:14.881Z,57
2018-08-17T01:55:04.938Z,57
2018-08-17T01:55:54.999Z,56.9
2018-08-17T01:56:44.541Z,57
2018-08-17T01:57:34.323Z,56.9
2018-08-17T01:58:24.403Z,56.9
2018-08-17T01:59:15.082Z,56.9
2018-08-17T02:00:05.090Z,56.9
2018-08-17T02:00:54.857Z,56.9
2018-08-17T02:01:45.529Z,56.9
2018-08-17T02:02:34.697Z,56.9
2018-08-17T02:03:25.089Z,56.9
2018-08-17T02:04:15.769Z,56.9
2018-08-17T02:05:05.462Z,56.9
2018-08-17T02:05:55.517Z,56.9
2018-08-17T02:06:45.315Z,56.9
2018-08-17T02:07:35.397Z,56.8
2018-08-17T02:08:26.000Z,56.9
2018-08-17T02:09:15.526Z,56.8
2018-08-17T02:10:05.854Z,56.8
2018-08-17T02:10:55.649Z,56.8
2018-08-17T02:11:45.976Z,56.8
2018-08-17T02:12:35.777Z,56.8
2018-08-17T02:13:25.822Z,56.8
2018-08-17T02:14:15.626Z,56.8
2018-08-17T02:15:05.970Z,56.8
2018-08-17T02:15:56.285Z,56.8
2018-08-17T02:16:46.090Z,56.8
2018-08-17T02:17:36.422Z,56.8
2018-08-17T02:18:25.936Z,56.8
2018-08-17T02:19:16.248Z,56.8
2018-08-17T02:20:06.639Z,56.8
2018-08-17T02:20:56.677Z,56.7
2018-08-17T02:21:46.727Z,56.7
2018-08-17T02:22:37.068Z,56.7
2018-08-17T02:23:26.871Z,56.7
2018-08-17T02:24:16.812Z,56.7
2018-08-17T02:25:06.457Z,56.7
2018-08-17T02:25:57.067Z,56.7
2018-08-17T02:26:47.394Z,56.6
2018-08-17T02:27:37.473Z,56.6
2018-08-17T02:28:27.538Z,56.6
2018-08-17T02:29:17.055Z,56.6
2018-08-17T02:30:06.846Z,56.6
2018-08-17T02:30:57.491Z,56.6
2018-08-17T02:31:47.225Z,56.6
2018-08-17T02:32:37.603Z,56.6
2018-08-17T02:33:27.411Z,56.6
2018-08-17T02:34:17.744Z,56.6
2018-08-17T02:35:08.078Z,56.6
2018-08-17T02:35:58.134Z,56.6
2018-08-17T02:36:48.195Z,56.6
2018-08-17T02:37:38.008Z,56.6
2018-08-17T02:38:28.395Z,56.5
2018-08-17T02:39:18.487Z,56.6
2018-08-17T02:40:08.199Z,56.5
2018-08-17T02:40:58.310Z,56.5
2018-08-17T02:41:48.312Z,56.5
2018-08-17T02:42:38.085Z,56.5
2018-08-17T02:43:28.749Z,56.5
2018-08-17T02:44:18.507Z,56.5
2018-08-17T02:45:08.560Z,56.5
2018-08-17T02:45:58.665Z,56.4
2018-08-17T02:46:48.975Z,56.4
2018-08-17T02:47:38.512Z,56.4
2018-08-17T02:48:28.829Z,56.4
2018-08-17T02:49:19.234Z,56.4
2018-08-17T02:50:08.682Z,56.4
2018-08-17T02:50:59.031Z,56.4
2018-08-17T02:51:48.795Z,56.4
2018-08-17T02:52:39.197Z,56.4
2018-08-17T02:53:29.193Z,56.4
2018-08-17T02:54:19.526Z,56.4
2018-08-17T02:55:09.163Z,56.4
2018-08-17T02:55:59.429Z,56.4
2018-08-17T02:56:49.490Z,56.4
2018-08-17T02:57:39.271Z,56.3
2018-08-17T02:58:29.609Z,56.3
2018-08-17T02:59:19.985Z,56.3
2018-08-17T03:00:09.488Z,56.3
2018-08-17T03:00:59.860Z,56.3
2018-08-17T03:01:50.116Z,56.3
2018-08-17T03:02:39.351Z,56.3
2018-08-17T03:03:29.722Z,56.3
2018-08-17T03:04:20.041Z,56.3
2018-08-17T03:05:10.436Z,56.3
2018-08-17T03:05:59.626Z,56.3
2018-08-17T03:06:49.704Z,56.3
2018-08-17T03:07:39.760Z,56.3
2018-08-17T03:08:30.362Z,56.3
2018-08-17T03:09:20.706Z,56.3
2018-08-17T03:10:10.526Z,56.2
2018-08-17T03:11:00.597Z,56.2
2018-08-17T03:11:50.985Z,56.2
2018-08-17T03:12:40.691Z,56.2
2018-08-17T03:13:30.827Z,56.2
2018-08-17T03:14:20.856Z,56.2
2018-08-17T03:15:11.223Z,56.2
2018-08-17T03:16:01.000Z,56.1
2018-08-17T03:16:50.802Z,56.1
2018-08-17T03:17:41.412Z,56.1
2018-08-17T03:18:31.214Z,56.1
2018-08-17T03:19:21.245Z,56.1
2018-08-17T03:20:11.578Z,56.1
2018-08-17T03:21:01.401Z,56.1
2018-08-17T03:21:51.035Z,56.1
2018-08-17T03:22:41.295Z,56.1
2018-08-17T03:23:31.841Z,56.1
2018-08-17T03:24:21.629Z,56.1
2018-08-17T03:25:26.735Z,56.1
2018-08-17T03:26:01.799Z,56.1
2018-08-17T03:26:51.785Z,56.1
2018-08-17T03:27:42.139Z,56.1
2018-08-17T03:28:32.198Z,56.1
2018-08-17T03:29:22.232Z,56
2018-08-17T03:30:11.772Z,56
2018-08-17T03:31:02.291Z,56
2018-08-17T03:31:52.440Z,56
2018-08-17T03:32:42.227Z,56
2018-08-17T03:33:32.551Z,56
2018-08-17T03:34:22.618Z,56
2018-08-17T03:35:12.434Z,56
2018-08-17T03:36:02.551Z,56
2018-08-17T03:36:52.846Z,55.9
2018-08-17T03:37:42.897Z,55.9
2018-08-17T03:38:32.409Z,55.9
2018-08-17T03:39:22.752Z,55.9
2018-08-17T03:40:12.809Z,55.9
2018-08-17T03:41:02.875Z,55.9
2018-08-17T03:41:53.016Z,55.9
2018-08-17T03:42:43.063Z,55.9
2018-08-17T03:43:33.365Z,55.9
2018-08-17T03:44:23.157Z,55.9
2018-08-17T03:45:12.966Z,55.9
2018-08-17T03:46:03.289Z,55.9
2018-08-17T03:46:53.647Z,55.9
2018-08-17T03:47:43.415Z,55.9
2018-08-17T03:48:33.775Z,55.8
2018-08-17T03:49:23.329Z,55.8
2018-08-17T03:50:13.614Z,55.8
2018-08-17T03:51:03.954Z,55.8
2018-08-17T03:51:54.018Z,55.8
2018-08-17T03:52:43.822Z,55.8
2018-08-17T03:53:33.889Z,55.8
2018-08-17T03:54:24.215Z,55.8
2018-08-17T03:55:14.004Z,55.8
2018-08-17T03:56:04.361Z,55.8
2018-08-17T03:56:54.422Z,55.8
2018-08-17T03:57:43.659Z,55.8
2018-08-17T03:58:33.689Z,55.8
2018-08-17T03:59:24.051Z,55.8
2018-08-17T04:00:14.389Z,55.8
2018-08-17T04:01:04.464Z,55.7
2018-08-17T04:01:54.827Z,55.7
2018-08-17T04:02:44.282Z,55.7
2018-08-17T04:03:34.348Z,55.7
2018-08-17T04:04:24.686Z,55.7
2018-08-17T04:05:15.018Z,55.7
2018-08-17T04:06:05.131Z,55.7
2018-08-17T04:06:54.613Z,55.7
2018-08-17T04:07:44.969Z,55.7
2018-08-17T04:08:35.306Z,55.6
2018-08-17T04:09:25.377Z,55.6
2018-08-17T04:10:15.168Z,55.6
2018-08-17T04:11:05.474Z,55.6
2018-08-17T04:11:54.720Z,55.6
2018-08-17T04:12:44.946Z,55.6
2018-08-17T04:13:35.423Z,55.6
2018-08-17T04:14:25.795Z,55.6
2018-08-17T04:15:15.536Z,55.6
2018-08-17T04:16:05.866Z,55.6
2018-08-17T04:16:55.914Z,55.6
2018-08-17T04:17:46.035Z,55.6
2018-08-17T04:18:36.051Z,55.6
2018-08-17T04:19:25.848Z,55.6
2018-08-17T04:20:16.238Z,55.6
2018-08-17T04:21:06.276Z,55.5
2018-08-17T04:21:56.377Z,55.5
2018-08-17T04:22:46.118Z,55.5
2018-08-17T04:23:36.505Z,55.5
2018-08-17T04:24:26.300Z,55.5
2018-08-17T04:25:16.628Z,55.5
2018-08-17T04:26:06.399Z,55.5
2018-08-17T04:26:56.466Z,55.4
2018-08-17T04:27:46.256Z,55.4
2018-08-17T04:28:36.605Z,55.4
2018-08-17T04:29:26.915Z,55.4
2018-08-17T04:30:17.026Z,55.4
2018-08-17T04:31:07.054Z,55.4
2018-08-17T04:31:56.563Z,55.4
2018-08-17T04:32:47.170Z,55.4
2018-08-17T04:33:37.236Z,55.4
2018-08-17T04:34:26.490Z,55.4
2018-08-17T04:35:17.002Z,55.4
2018-08-17T04:36:07.467Z,55.4
2018-08-17T04:36:56.939Z,55.4
2018-08-17T04:37:47.006Z,55.4
2018-08-17T04:38:37.595Z,55.4
2018-08-17T04:39:27.708Z,55.4
2018-08-17T04:40:17.733Z,55.3
2018-08-17T04:41:07.363Z,55.3
2018-08-17T04:41:57.580Z,55.3
2018-08-17T04:42:47.462Z,55.3
2018-08-17T04:43:37.446Z,55.3
2018-08-17T04:44:27.312Z,55.3
2018-08-17T04:45:17.161Z,55.3
2018-08-17T04:46:07.418Z,55.3
2018-08-17T04:46:57.951Z,55.3
2018-08-17T04:47:48.033Z,55.3
2018-08-17T04:48:38.096Z,55.3
2018-08-17T05:07:07.716Z,55.1
2018-08-17T05:07:50.732Z,55.1
2018-08-17T05:08:55.009Z,55.1
2018-08-17T05:10:19.619Z,55.1
2018-08-17T05:11:08.832Z,55.1
2018-08-17T05:11:59.440Z,55.1
2018-08-17T05:12:49.788Z,55
2018-08-17T05:13:39.863Z,55
2018-08-17T05:14:29.129Z,55
2018-08-17T05:15:20.051Z,55
2018-08-17T05:16:10.048Z,55
2018-08-17T05:17:00.159Z,55
2018-08-17T05:17:50.231Z,55
2018-08-17T05:18:40.274Z,55
2018-08-17T05:19:29.278Z,55
2018-08-17T05:20:19.928Z,54.9
2018-08-17T05:21:10.018Z,54.9
2018-08-17T05:22:00.298Z,54.9
2018-08-17T05:22:50.651Z,54.9
2018-08-17T05:23:40.403Z,54.9
2018-08-17T05:24:30.457Z,54.9
2018-08-17T05:25:20.041Z,54.9
2018-08-17T05:26:09.821Z,54.9
2018-08-17T05:27:00.912Z,54.9
2018-08-17T05:27:50.771Z,54.9
2018-08-17T05:28:40.492Z,54.9
2018-08-17T05:29:30.843Z,54.9
2018-08-17T05:30:20.412Z,54.9
2018-08-17T05:31:10.224Z,54.9
2018-08-17T05:32:01.316Z,54.9
2018-08-17T05:32:51.150Z,54.8
2018-08-17T05:33:41.462Z,54.9
2018-08-17T05:34:30.684Z,54.8
2018-08-17T05:35:21.527Z,54.8
2018-08-17T05:36:11.587Z,54.8
2018-08-17T05:37:00.695Z,54.8
2018-08-17T05:37:51.705Z,54.8
2018-08-17T05:38:41.791Z,54.8
2018-08-17T05:39:31.308Z,54.8
2018-08-17T05:40:21.368Z,54.8
2018-08-17T05:41:11.967Z,54.8
2018-08-17T05:42:01.775Z,54.8
2018-08-17T05:42:51.896Z,54.8
2018-08-17T05:43:42.175Z,54.8
2018-08-17T05:44:32.223Z,54.8
2018-08-17T05:45:21.737Z,54.7
2018-08-17T05:46:12.363Z,54.8
2018-08-17T05:47:02.150Z,54.7
2018-08-17T05:47:52.219Z,54.7
2018-08-17T05:48:41.717Z,54.7
2018-08-17T05:49:32.655Z,54.7
2018-08-17T05:50:22.165Z,54.7
2018-08-17T05:51:12.765Z,54.7
2018-08-17T05:52:02.555Z,54.7
2018-08-17T05:52:52.698Z,54.7
2018-08-17T05:53:42.985Z,54.6
2018-08-17T05:54:32.558Z,54.6
2018-08-17T05:55:22.830Z,54.6
2018-08-17T05:56:12.875Z,54.6
2018-08-17T05:57:03.265Z,54.6
2018-08-17T05:57:53.287Z,54.6
2018-08-17T05:58:42.332Z,54.6
2018-08-17T05:59:33.165Z,54.6
2018-08-17T06:00:23.223Z,54.6
2018-08-17T06:01:13.003Z,54.6
2018-08-17T06:02:03.365Z,54.6
2018-08-17T06:02:54.604Z,54.6
2018-08-17T06:03:43.185Z,54.6
2018-08-17T06:04:33.528Z,54.6
2018-08-17T06:05:23.389Z,54.6
2018-08-17T06:06:13.969Z,54.6
2018-08-17T06:07:03.746Z,54.5
2018-08-17T06:07:53.853Z,54.6
2018-08-17T06:08:43.866Z,54.5
2018-08-17T06:09:33.927Z,54.5
2018-08-17T06:10:24.266Z,54.5
2018-08-17T06:11:16.609Z,54.5
2018-08-17T06:12:04.104Z,54.5
2018-08-17T06:12:54.131Z,54.4
2018-08-17T06:13:44.509Z,54.4
2018-08-17T06:14:34.591Z,54.4
2018-08-17T06:15:24.606Z,54.4
2018-08-17T06:16:14.201Z,54.4
2018-08-17T06:17:04.468Z,54.4
2018-08-17T06:17:54.798Z,54.4
2018-08-17T06:18:44.303Z,54.4
2018-08-17T06:19:34.648Z,54.4
2018-08-17T06:20:24.718Z,54.4
2018-08-17T06:21:15.077Z,54.4
2018-08-17T06:22:05.120Z,54.4
2018-08-17T06:22:55.167Z,54.4
2018-08-17T06:23:44.707Z,54.4
2018-08-17T06:24:35.338Z,54.3
2018-08-17T06:25:25.404Z,54.4
2018-08-17T06:26:15.470Z,54.4
2018-08-17T06:27:04.962Z,54.4
2018-08-17T06:27:55.586Z,54.3
2018-08-17T06:28:45.673Z,54.3
2018-08-17T06:29:35.207Z,54.3
2018-08-17T06:30:25.260Z,54.3
2018-08-17T06:31:15.602Z,54.3
2018-08-17T06:32:05.653Z,54.3
2018-08-17T06:32:55.983Z,54.3
2018-08-17T06:33:45.778Z,54.3
2018-08-17T06:34:35.861Z,54.3
2018-08-17T06:35:25.358Z,54.3
2018-08-17T06:36:16.195Z,54.3
2018-08-17T06:37:05.832Z,54.2
2018-08-17T06:37:56.401Z,54.3
2018-08-17T06:38:45.920Z,54.3
2018-08-17T06:39:36.626Z,54.2
2018-08-17T06:40:26.638Z,54.2
2018-08-17T06:41:16.666Z,54.2
2018-08-17T06:42:06.552Z,54.2
2018-08-17T06:42:56.766Z,54.2
2018-08-17T06:43:46.589Z,54.1
2018-08-17T06:44:36.920Z,54.1
2018-08-17T06:45:26.963Z,54.1
2018-08-17T06:46:16.979Z,54.1
2018-08-17T06:47:06.780Z,54.1
2018-08-17T06:47:56.877Z,54.1
2018-08-17T06:48:46.915Z,54.1
2018-08-17T06:49:37.275Z,54.1
2018-08-17T06:50:27.043Z,54.1
2018-08-17T06:51:17.055Z,54.1
2018-08-17T06:52:07.477Z,54.1
2018-08-17T06:52:57.539Z,54.1
2018-08-17T06:53:47.611Z,54
2018-08-17T06:54:37.649Z,54
2018-08-17T06:55:27.212Z,54
2018-08-17T06:56:17.770Z,54
2018-08-17T06:57:08.203Z,54
2018-08-17T06:57:57.620Z,54
2018-08-17T06:58:47.701Z,54
2018-08-17T06:59:38.089Z,54
2018-08-17T07:00:27.629Z,54
2018-08-17T07:01:17.960Z,53.9
2018-08-17T07:02:08.014Z,53.9
2018-08-17T07:02:58.344Z,53.9
2018-08-17T07:03:47.834Z,53.9
2018-08-17T07:04:38.197Z,53.9
2018-08-17T07:05:27.966Z,53.9
2018-08-17T07:06:18.012Z,53.9
2018-08-17T07:07:08.081Z,53.9
2018-08-17T07:07:58.683Z,53.9
2018-08-17T07:08:50.388Z,53.9
2018-08-17T07:09:39.587Z,53.9
2018-08-17T07:10:28.333Z,53.9
2018-08-17T07:11:18.966Z,53.9
2018-08-17T07:12:09.014Z,53.9
2018-08-17T07:12:59.100Z,53.9
2018-08-17T07:13:48.923Z,53.9
2018-08-17T07:14:38.683Z,53.8
2018-08-17T07:15:29.012Z,53.8
2018-08-17T07:16:19.100Z,53.8
2018-08-17T07:17:09.428Z,53.8
2018-08-17T07:17:59.228Z,53.8
2018-08-17T07:18:49.556Z,53.8
2018-08-17T07:19:39.608Z,53.8
2018-08-17T07:20:29.417Z,53.8
2018-08-17T07:21:19.456Z,53.8
2018-08-17T07:22:09.793Z,53.8
2018-08-17T07:22:59.590Z,53.8
2018-08-17T07:23:49.888Z,53.8
2018-08-17T07:24:39.708Z,53.8
2018-08-17T07:25:30.096Z,53.8
2018-08-17T07:26:19.815Z,53.8
2018-08-17T07:27:10.142Z,53.7
2018-08-17T07:28:00.882Z,53.7
2018-08-17T07:28:50.002Z,53.7
2018-08-17T07:29:40.360Z,53.7
2018-08-17T07:30:29.907Z,53.7
2018-08-17T07:31:20.225Z,53.7
2018-08-17T07:32:10.540Z,53.7
2018-08-17T07:33:00.476Z,53.6
2018-08-17T07:33:50.723Z,53.6
2018-08-17T07:34:40.751Z,53.6
2018-08-17T07:35:30.491Z,53.6
2018-08-17T07:36:20.641Z,53.6
2018-08-17T07:37:10.420Z,53.6
2018-08-17T07:38:00.732Z,53.6
2018-08-17T07:38:50.778Z,53.6
2018-08-17T07:39:41.171Z,53.6
2018-08-17T07:40:31.223Z,53.6
2018-08-17T07:41:21.301Z,53.6
2018-08-17T07:42:11.382Z,53.6
2018-08-17T07:43:01.461Z,53.6
2018-08-17T07:43:51.243Z,53.6
2018-08-17T07:44:41.556Z,53.6
2018-08-17T07:45:31.631Z,53.6
2018-08-17T07:46:21.684Z,53.5
2018-08-17T07:47:12.041Z,53.5
2018-08-17T07:48:02.841Z,53.5
2018-08-17T07:48:51.589Z,53.5
2018-08-17T07:49:41.686Z,53.5
2018-08-17T07:50:31.759Z,53.5
2018-08-17T07:51:21.823Z,53.5
2018-08-17T07:52:12.188Z,53.4
2018-08-17T07:53:01.911Z,53.4
2018-08-17T07:53:52.275Z,53.4
2018-08-17T07:54:42.348Z,53.4
2018-08-17T07:55:32.413Z,53.4
2018-08-17T07:56:22.156Z,53.4
2018-08-17T07:57:12.224Z,53.4
2018-08-17T07:58:02.574Z,53.4
2018-08-17T07:58:52.584Z,53.4
2018-08-17T07:59:42.683Z,53.4
2018-08-17T08:00:32.473Z,53.4
2018-08-17T08:01:22.533Z,53.4
2018-08-17T08:02:12.890Z,53.4
2018-08-17T08:03:02.366Z,53.4
2018-08-17T08:03:52.443Z,53.4
2018-08-17T08:04:43.064Z,53.4
2018-08-17T08:05:33.198Z,53.4
2018-08-17T08:06:23.209Z,53.3
2018-08-17T08:07:13.272Z,53.3
2018-08-17T08:08:03.039Z,53.3
2018-08-17T08:08:53.398Z,53.3
2018-08-17T08:09:43.458Z,53.3
2018-08-17T08:10:34.268Z,53.3
2018-08-17T08:11:22.854Z,53.3
2018-08-17T08:12:13.639Z,53.3
2018-08-17T08:13:02.970Z,53.3
2018-08-17T08:13:53.491Z,53.3
2018-08-17T08:14:43.901Z,53.3
2018-08-17T08:15:33.655Z,53.3
2018-08-17T08:16:23.478Z,53.3
2018-08-17T08:17:14.079Z,53.3
2018-08-17T08:18:04.168Z,53.3
2018-08-17T08:18:54.231Z,53.2
2018-08-17T08:19:43.705Z,53.2
2018-08-17T08:20:34.820Z,53.2
2018-08-17T08:21:24.148Z,53.2
2018-08-17T08:22:14.190Z,53.2
2018-08-17T08:23:04.251Z,53.2
2018-08-17T08:23:54.426Z,53.2
2018-08-17T08:24:44.648Z,53.1
2018-08-17T08:25:34.163Z,53.2
2018-08-17T08:26:24.803Z,53.2
2018-08-17T08:27:14.298Z,53.1
2018-08-17T08:28:04.664Z,53.1
2018-08-17T08:28:54.762Z,53.1
2018-08-17T08:29:44.513Z,53.1
2018-08-17T08:30:35.120Z,53.1
2018-08-17T08:31:24.643Z,53.1
2018-08-17T08:32:15.302Z,53.1
2018-08-17T08:33:05.027Z,53.1
2018-08-17T08:33:55.071Z,53.1
2018-08-17T08:34:45.142Z,53.1
2018-08-17T08:35:35.460Z,53.1
2018-08-17T08:36:25.554Z,53.1
2018-08-17T08:37:15.055Z,53
2018-08-17T08:38:05.395Z,53
2018-08-17T08:38:55.472Z,52.9
2018-08-17T08:39:45.495Z,52.9
2018-08-17T08:40:35.869Z,52.9
2018-08-17T08:41:25.441Z,52.9
2018-08-17T08:42:16.084Z,52.9
2018-08-17T08:43:06.057Z,52.9
2018-08-17T08:43:56.125Z,52.9
2018-08-17T08:44:46.190Z,52.9
2018-08-17T08:45:37.257Z,52.9
2018-08-17T08:46:25.795Z,53
2018-08-17T08:47:16.113Z,53.1
2018-08-17T08:48:06.479Z,53.1
2018-08-17T08:48:56.504Z,53.2
2018-08-17T08:49:46.581Z,53.2
2018-08-17T08:50:36.458Z,53.3
2018-08-17T08:51:26.755Z,53.3
2018-08-17T08:52:16.825Z,53.4
2018-08-17T08:53:06.894Z,53.4
2018-08-17T08:53:56.689Z,53.4
2018-08-17T08:54:46.743Z,53.5
2018-08-17T08:55:36.821Z,53.6
2018-08-17T08:56:26.946Z,53.6
2018-08-17T08:57:17.219Z,53.7
2018-08-17T08:58:06.981Z,53.7
2018-08-17T08:58:56.568Z,53.8
2018-08-17T08:59:47.420Z,53.9
2018-08-17T09:00:37.488Z,53.9
2018-08-17T09:01:27.531Z,53.9
2018-08-17T09:02:17.112Z,54
2018-08-17T09:03:07.659Z,54.1
2018-08-17T09:03:57.182Z,54.1
2018-08-17T09:04:47.870Z,54.2
2018-08-17T09:21:15.029Z,55.5
2018-08-17T09:22:03.462Z,55.6
2018-08-17T09:22:52.999Z,55.6
2018-08-17T09:23:43.809Z,55.6
2018-08-17T09:24:33.889Z,55.8
2018-08-17T09:25:23.672Z,55.8
2018-08-17T09:26:14.004Z,55.9
2018-08-17T09:27:03.801Z,55.9
2018-08-17T09:27:54.206Z,56
2018-08-17T09:28:43.900Z,56.1
2018-08-17T09:29:34.300Z,56.2
2018-08-17T09:30:24.395Z,56.3
2018-08-17T09:31:14.460Z,56.3
2018-08-17T09:32:04.216Z,56.4
2018-08-17T09:32:54.365Z,56.4
2018-08-17T09:33:44.344Z,56.5
2018-08-17T09:34:34.747Z,56.6
2018-08-17T09:35:24.784Z,56.6
2018-08-17T09:36:14.964Z,56.7
2018-08-17T09:37:04.672Z,56.8
2018-08-17T09:37:54.980Z,56.9
2018-08-17T09:38:44.774Z,56.9
2018-08-17T09:39:34.548Z,57
2018-08-17T09:40:25.172Z,57.1
2018-08-17T09:41:14.191Z,57.1
2018-08-17T09:42:04.345Z,57.2
2018-08-17T09:42:55.062Z,57.3
2018-08-17T09:43:44.598Z,57.4
2018-08-17T09:44:34.911Z,57.4
2018-08-17T09:45:25.289Z,57.5
2018-08-17T09:46:15.341Z,57.5
2018-08-17T09:47:05.674Z,57.6
2018-08-17T09:47:55.196Z,57.7
2018-08-17T09:49:35.859Z,57.8
2018-08-17T09:50:25.911Z,57.9
2018-08-17T09:51:15.574Z,57.9
2018-08-17T09:52:05.502Z,58.1
2018-08-17T09:52:56.144Z,58.1
2018-08-17T09:53:45.646Z,58.2
2018-08-17T09:54:36.264Z,58.3
2018-08-17T09:55:26.022Z,58.3
2018-08-17T09:56:15.517Z,58.4
2018-08-17T09:57:06.146Z,58.4
2018-08-17T09:57:56.542Z,58.5
2018-08-17T09:59:36.065Z,58.6
2018-08-17T10:00:26.393Z,58.7
2018-08-17T10:01:16.220Z,58.8
2018-08-17T10:02:06.810Z,58.9
2018-08-17T10:02:56.970Z,58.9
2018-08-17T10:03:46.786Z,59
2018-08-17T10:04:37.103Z,59.1
2018-08-17T10:05:26.520Z,59.1
2018-08-17T10:06:16.905Z,59.2
2018-08-17T10:07:06.680Z,59.3
2018-08-17T10:07:57.048Z,59.3
2018-08-17T10:08:47.095Z,59.4
2018-08-17T10:09:37.455Z,59.4
2018-08-17T10:10:27.306Z,59.5
2018-08-17T10:11:17.609Z,59.6
2018-08-17T10:12:07.110Z,59.6
2018-08-17T10:12:57.506Z,59.6
2018-08-17T10:13:47.808Z,59.8
2018-08-17T10:14:37.284Z,59.8
2018-08-17T10:15:27.330Z,59.8
2018-08-17T10:16:17.983Z,59.8
2018-08-17T10:17:07.761Z,59.9
2018-08-17T10:17:57.924Z,59.9
2018-08-17T10:18:47.942Z,60
2018-08-17T10:19:37.686Z,60
2018-08-17T10:20:28.022Z,60.1
2018-08-17T10:21:21.176Z,60.1
2018-08-17T10:22:10.950Z,60.2
2018-08-17T10:22:58.239Z,60.2
2018-08-17T10:23:48.531Z,60.3
2018-08-17T10:24:38.089Z,60.3
2018-08-17T10:25:28.398Z,60.3
2018-08-17T10:26:18.164Z,60.4
2018-08-17T10:27:08.542Z,60.4
2018-08-17T10:27:58.861Z,60.4
2018-08-17T10:28:47.907Z,60.4
2018-08-17T10:29:38.721Z,60.4
2018-08-17T10:30:29.099Z,60.4
2018-08-17T10:31:18.877Z,60.5
2018-08-17T10:32:08.921Z,60.5
2018-08-17T10:32:59.029Z,60.5
2018-08-17T10:33:49.167Z,60.5
2018-08-17T10:34:39.120Z,60.5
2018-08-17T10:35:29.230Z,60.5
2018-08-17T10:36:19.529Z,60.5
2018-08-17T10:37:09.591Z,60.5
2018-08-17T10:37:59.157Z,60.5
2018-08-17T10:38:49.453Z,60.5
2018-08-17T10:39:39.271Z,60.5
2018-08-17T10:40:29.273Z,60.5
2018-08-17T10:41:19.656Z,60.5
2018-08-17T10:42:09.776Z,60.5
2018-08-17T10:43:00.081Z,60.5
2018-08-17T10:43:49.873Z,60.5
2018-08-17T10:44:39.740Z,60.5
2018-08-17T10:45:30.313Z,60.5
2018-08-17T10:46:20.354Z,60.4
2018-08-17T10:47:10.123Z,60.4
2018-08-17T10:48:00.182Z,60.4
2018-08-17T10:48:51.324Z,60.4
2018-08-17T10:49:39.555Z,60.4
2018-08-17T10:50:30.446Z,60.4
2018-08-17T10:51:20.459Z,60.4
2018-08-17T10:52:10.780Z,60.4
2018-08-17T10:53:00.024Z,60.4
2018-08-17T10:53:50.904Z,60.4
2018-08-17T10:54:40.742Z,60.4
2018-08-17T10:55:31.353Z,60.4
2018-08-17T10:56:21.228Z,60.4
2018-08-17T10:57:11.183Z,60.4
2018-08-17T10:58:01.249Z,60.4
2018-08-17T10:58:51.037Z,60.4
2018-08-17T10:59:41.336Z,60.4
2018-08-17T11:00:31.413Z,60.4
2018-08-17T11:01:21.469Z,60.4
2018-08-17T11:02:11.532Z,60.4
2018-08-17T11:03:01.656Z,60.4
2018-08-17T11:03:51.437Z,60.4
2018-08-17T11:04:41.732Z,60.4
2018-08-17T11:05:30.967Z,60.4
2018-08-17T11:06:21.875Z,60.4
2018-08-17T11:07:11.364Z,60.4
2018-08-17T11:08:02.000Z,60.4
2018-08-17T11:08:52.048Z,60.4
2018-08-17T11:09:41.297Z,60.4
2018-08-17T11:10:31.896Z,60.3
2018-08-17T11:11:22.096Z,60.3
2018-08-17T11:12:12.053Z,60.3
2018-08-17T11:13:02.090Z,60.4
2018-08-17T11:13:52.496Z,60.3
2018-08-17T11:14:41.718Z,60.3
2018-08-17T11:15:32.425Z,60.3
2018-08-17T11:16:22.632Z,60.3
2018-08-17T11:17:12.621Z,60.3
2018-08-17T11:18:02.918Z,60.3
2018-08-17T11:18:52.610Z,60.3
2018-08-17T11:19:42.653Z,60.3
2018-08-17T11:20:32.787Z,60.3
2018-08-17T11:21:22.823Z,60.3
2018-08-17T11:22:12.861Z,60.3
2018-08-17T11:23:03.097Z,60.3
2018-08-17T11:23:53.004Z,60.3
2018-08-17T11:24:43.332Z,60.3
2018-08-17T11:25:33.407Z,60.3
2018-08-17T11:26:23.223Z,60.3
2018-08-17T11:27:13.551Z,60.3
2018-08-17T11:28:02.774Z,60.3
2018-08-17T11:28:53.365Z,60.3
2018-08-17T11:29:43.728Z,60.3
2018-08-17T11:30:33.842Z,60.3
2018-08-17T11:31:23.012Z,60.3
2018-08-17T11:32:13.974Z,60.3
2018-08-17T11:33:03.441Z,60.3
2018-08-17T11:33:53.527Z,60.2
2018-08-17T11:34:44.133Z,60.2
2018-08-17T11:35:34.187Z,60.2
2018-08-17T11:36:24.207Z,60.2
2018-08-17T11:37:14.298Z,60.2
2018-08-17T11:38:04.119Z,60.2
2018-08-17T11:38:53.618Z,60.2
2018-08-17T11:39:43.685Z,60.2
2018-08-17T11:40:34.025Z,60.2
2018-08-17T11:41:24.048Z,60.2
2018-08-17T11:42:13.934Z,60.2
2018-08-17T11:43:03.947Z,60.2
2018-08-17T11:43:54.297Z,60.1
2018-08-17T11:44:44.167Z,60.1
2018-08-17T11:45:34.733Z,60.2
2018-08-17T11:46:24.260Z,60.1
2018-08-17T11:47:14.844Z,60.1
2018-08-17T11:48:04.701Z,60.1
2018-08-17T11:48:54.202Z,60.1
2018-08-17T11:49:44.785Z,60.1
2018-08-17T11:50:35.343Z,60.1
2018-08-17T11:51:25.406Z,60.1
2018-08-17T11:52:15.215Z,60.1
2018-08-17T11:53:05.030Z,60.1
2018-08-17T11:53:56.206Z,60.1
2018-08-17T11:54:45.453Z,60.1
2018-08-17T11:55:35.493Z,60.1
2018-08-17T11:56:25.556Z,60.1
2018-08-17T11:57:15.650Z,60.1
2018-08-17T11:58:05.396Z,60.1
2018-08-17T11:58:55.727Z,60.1
2018-08-17T11:59:45.835Z,60.1
2018-08-17T12:00:36.184Z,60.1
2018-08-17T12:01:25.666Z,60.1
2018-08-17T12:02:16.012Z,60.1
2018-08-17T12:03:06.091Z,60.1
2018-08-17T12:03:55.873Z,60.1
2018-08-17T12:04:46.485Z,60.1
2018-08-17T12:05:36.292Z,60.1
2018-08-17T12:06:26.372Z,60
2018-08-17T12:07:16.708Z,60.1
2018-08-17T12:08:07.277Z,60
2018-08-17T12:08:56.847Z,60
2018-08-17T12:09:46.918Z,60
2018-08-17T12:10:36.645Z,60
2018-08-17T12:11:26.710Z,60
2018-08-17T12:12:17.029Z,60
2018-08-17T12:13:06.820Z,60
2018-08-17T12:13:56.909Z,59.9
2018-08-17T12:14:47.238Z,60
2018-08-17T12:15:36.737Z,59.9
2018-08-17T12:16:27.092Z,60
2018-08-17T12:17:17.412Z,60
2018-08-17T12:18:07.482Z,59.9
2018-08-17T12:18:57.464Z,59.9
2018-08-17T12:19:47.599Z,59.9
2018-08-17T12:20:37.674Z,59.9
2018-08-17T12:21:27.733Z,59.9
2018-08-17T12:22:17.856Z,59.9
2018-08-17T12:23:07.882Z,59.9
2018-08-17T12:23:57.697Z,59.9
2018-08-17T12:24:48.956Z,59.9
2018-08-17T12:25:37.816Z,59.9
2018-08-17T12:26:27.889Z,59.9
2018-08-17T12:27:17.112Z,59.9
2018-08-17T12:28:08.007Z,59.9